Etusivu
METAR-TAF:

METAR-TAF

Lentoasemat :

Molden lentoasema

Molde, Norja

Leveyspiiri: 62-45N, Pituuspiiri: 007-16E, korkeus merenpinnasta: 0 m

Tämänhetkinen sää

Tämä raportti tehtiin 12 minuuttia sitten, kello 05.20 UTC
Tuuli 8 kn koillisesta
Lämpötila 1°C
Kosteus 59%
Ilmanpaine 1010 hPa
Näkyvyys 10 km tai enemmän
Hajanaisia pilviä 7000 ft:n korkeudessa
Hajonneita pilviä 11000 ft:n korkeudessa

METAR: ENML 190520Z 04008KT 9999 SCT070 BKN110 01/M06 Q1010

Aika: 06:32 (05:32 UTC)

Sääennuste

Tämä raportti tehtiin 12 tuntia ja 32 minuuttia sitten, kello 17.00 UTC
Ennuste voimassa 18. päivästä klo 18 UTC - 18. päivään klo 22 UTC
Tuuli 8 kn pohjoisesta/koillisesta
Näkyvyys 10 km tai enemmän
ei pilviä alle 1500 m:ssä eikä cumulonimbus-pilviä

TAF: ENML 181700Z 1818/1822 03008KT CAVOK

Säähavainnot ja -ennusteet yli 4000 lentoasemalta (METAR- ja TAF-raportit).

Käytössä olevat sääasemat on merkitty karttaan keltaisilla ja punaisilla pisteillä.

Aseta hiiri pisteen päälle nähdäksesi sääaseman nimen.

Klikkaa sitten nähdäksesi säähavainnot ja -ennusteet.

Kartan vaihtaminen: klikkaa mustalla rastilla varustettuja vihreitä pisteitä, niin voit zoomata sisään; viivalla varustettua vihreää pistettä, niin voit zoomata ulos tai vihreitä nuolia, niin pääset viereisille kartoille.


METAR-TAF: